Green Bay, Wisconsin
Current Conditions -  °F | °C
As of 12:53 PM on Thursday 23 Oct 2014 (Local Time) from KGRB Reporting Station
Overcast Overcast  
Wind Chill: 54°   Ceiling: 5000
Heat Index: 54°   Visibility: 10mi
Dew Point: 40°   Wind: 12mph
Humidity: 59%   Direction: 200°SSW
Pressure: 30.1"   Gusts: NA
Location:  44.51°N, 88.01°W
Report Text: KGRB 231753Z 20010KT 10SM BKN050 OVC090 12/04 A3010 RMK AO2 RAB28E43 SLP197 P0000 60000 T01220044 10128 20028 58016
Loading
Personal Weather Stations






























Interactive Weather Map New forecast layout! Learn more

10-Day Weather Forecast

Advertisements
Track Severe Weather on mobile